Aérodrome :







RETROUVEZ-NOUS SUR...

 
LOGIN :

S'inscrire | Disclaimer

   EN    FR    IT 

 









Légende :    VFR   VFR Marginal   IFR   IFR Intensif   IFR Très Intensif
Visi : 
Plafond : 
>= 8 km
>= 3000ft
5 à 8 km
1000 à 3000 ft
1500m à 5 km
500 à 1000 ft
800 à 1500m
200 à 500 ft
< 800m
< 200 ft
Symboles :   Orages  Brouillard  Fortes neiges  Fortes précipitations  Vent > 20 kt






- Altitude de l'aérodrome : 92 ft
- Code IATA : YZX


CYZX - CFB Greenwood

DERNIER METAR :
  • 280900Z 27023G29KT 15SM OVC040 00/M06 A2944 RMK SC8 PCPN VRY LGT SLP969

METARs EXPIRÉS :
  • 280800Z 26019G29KT 15SM -SHSN OVC030 01/M01 A2942 RMK SC8 SLP962
  • 280700Z 27023G34KT 15SM -SHSN OVC030 01/M03 A2938 RMK SC8 SLP949
  • 280614Z 25022G27KT 15SM -SHSN SCT029 OVC044 02/M03 A2936 RMK SC4SC4 SLP942

TAF AMD TAF CYZX
Valide du 28 à 07h jusqu'au 29 à 06h UTC


280721Z 2807/2906 23030G40KT P6SM OVC025
TEMPO 2807/2811 4SM -SHSN OVC020
FM281100 25025G35KT P6SM OVC030
TEMPO 2811/2820 2SM -SHSN OVC020
BECMG 2812/2814 25017G27KT
FM282000 24015G25KT P6SM BKN030
TEMPO 2820/2906 P6SM -SHSN
BECMG 2821/2823 23012KT
BECMG 2900/2902 23006KT RMK NXT FCST BY 281200Z



MET'MAP, la Météo Aéronautique d'un coup d'oeil ! - Copyright ORBIFLY Décembre 2007 - Disclaimer

ORBIFLY MET'MAP TEAM :

Programmation & Développement : Alexandra Zaïnal
Sur une idée originale de : Baudouin d'Aumeries
Assistance à la programmation : Marc-Olivier Méhu
Soutien technique & logistique : Manuel Goepfert

Contact : metmap@orbifly.com




SOURCES & CREDITS :

   NOAA